createdAt,value
2018-05-12T00:01:58.256Z,5.63
2018-05-12T00:04:26.618Z,8.27
2018-05-12T00:06:55.728Z,5.80
2018-05-12T00:09:24.072Z,5.70
2018-05-12T00:11:52.391Z,6.27
2018-05-12T00:14:20.721Z,6.10
2018-05-12T00:16:49.064Z,6.13
2018-05-12T00:19:17.380Z,7.23
2018-05-12T00:21:45.719Z,7.43
2018-05-12T00:24:14.582Z,8.60
2018-05-12T00:26:42.931Z,7.93
2018-05-12T00:29:11.259Z,8.37
2018-05-12T00:31:39.625Z,8.40
2018-05-12T00:34:07.939Z,7.77
2018-05-12T00:39:23.573Z,7.20
2018-05-12T00:41:51.904Z,7.53
2018-05-12T00:44:20.208Z,7.30
2018-05-12T00:46:48.634Z,8.60
2018-05-12T00:49:16.920Z,6.77
2018-05-12T00:51:45.221Z,7.63
2018-05-12T00:54:13.579Z,7.43
2018-05-12T00:56:41.885Z,6.50
2018-05-12T00:59:10.192Z,7.70
2018-05-12T01:01:38.963Z,9.47
2018-05-12T01:04:07.289Z,10.87
2018-05-12T01:06:36.401Z,9.90
2018-05-12T01:09:06.491Z,10.03
2018-05-12T01:11:34.841Z,11.00
2018-05-12T01:14:03.175Z,11.43
2018-05-12T01:16:31.547Z,10.20
2018-05-12T01:18:59.859Z,10.70
2018-05-12T01:21:28.191Z,10.23
2018-05-12T01:23:56.717Z,10.33
2018-05-12T01:26:25.045Z,11.23
2018-05-12T01:28:53.353Z,9.83
2018-05-12T01:31:21.715Z,9.80
2018-05-12T01:33:50.036Z,9.50
2018-05-12T01:36:18.376Z,9.70
2018-05-12T01:38:47.491Z,9.33
2018-05-12T01:41:15.834Z,9.63
2018-05-12T01:43:44.942Z,10.03
2018-05-12T01:46:14.343Z,10.17
2018-05-12T01:48:42.689Z,9.40
2018-05-12T01:51:10.990Z,9.00
2018-05-12T01:53:39.359Z,9.80
2018-05-12T01:56:07.714Z,9.27
2018-05-12T01:58:36.023Z,9.60
2018-05-12T02:01:04.360Z,9.53
2018-05-12T02:03:32.684Z,9.77
2018-05-12T02:06:00.989Z,9.47
2018-05-12T02:08:29.950Z,9.27
2018-05-12T02:10:58.306Z,9.13
2018-05-12T02:13:26.628Z,10.13
2018-05-12T02:15:55.736Z,9.93
2018-05-12T02:18:24.078Z,9.97
2018-05-12T02:20:52.404Z,9.60
2018-05-12T02:23:20.760Z,10.07
2018-05-12T02:25:49.842Z,10.00
2018-05-12T02:28:18.139Z,9.93
2018-05-12T02:30:47.747Z,9.70
2018-05-12T02:33:16.101Z,10.00
2018-05-12T02:35:45.199Z,10.63
2018-05-12T02:38:13.572Z,10.77
2018-05-12T02:40:41.916Z,9.80
2018-05-12T02:43:10.235Z,9.40
2018-05-12T02:45:38.620Z,10.47
2018-05-12T02:48:06.981Z,10.40
2018-05-12T02:50:35.285Z,10.63
2018-05-12T02:53:04.879Z,10.30
2018-05-12T02:55:33.175Z,10.20
2018-05-12T02:58:01.515Z,10.00
2018-05-12T03:00:29.888Z,9.67
2018-05-12T03:02:58.230Z,10.67
2018-05-12T03:05:26.564Z,10.53
2018-05-12T03:07:54.934Z,10.63
2018-05-12T03:10:23.234Z,10.17
2018-05-12T03:12:51.569Z,11.30
2018-05-12T03:15:20.407Z,10.57
2018-05-12T03:17:49.497Z,11.90
2018-05-12T03:20:17.819Z,11.33
2018-05-12T03:22:46.198Z,11.70
2018-05-12T03:25:14.528Z,12.20
2018-05-12T03:27:42.887Z,12.70
2018-05-12T03:30:11.216Z,13.43
2018-05-12T03:32:39.570Z,14.60
2018-05-12T03:35:07.905Z,13.10
2018-05-12T03:37:36.484Z,12.83
2018-05-12T03:40:04.793Z,13.43
2018-05-12T03:42:33.114Z,13.23
2018-05-12T03:45:01.443Z,14.43
2018-05-12T03:47:29.783Z,12.80
2018-05-12T03:49:58.102Z,13.07
2018-05-12T03:52:26.456Z,14.97
2018-05-12T03:54:54.771Z,13.83
2018-05-12T03:57:23.087Z,13.23
2018-05-12T03:59:51.651Z,11.23
2018-05-12T04:02:19.982Z,11.20
2018-05-12T04:05:06.075Z,11.80
2018-05-12T04:07:51.882Z,11.23
2018-05-12T04:10:44.201Z,12.50
2018-05-12T04:13:12.567Z,12.43
2018-05-12T04:15:40.944Z,20.07
2018-05-12T04:18:09.554Z,18.73
2018-05-12T04:20:37.878Z,20.27
2018-05-12T04:23:06.205Z,18.53
2018-05-12T04:25:34.577Z,18.70
2018-05-12T04:28:02.920Z,16.87
2018-05-12T04:30:32.012Z,17.10
2018-05-12T04:33:00.358Z,14.93
2018-05-12T04:35:29.477Z,14.93
2018-05-12T04:37:58.576Z,14.30
2018-05-12T04:40:27.762Z,13.27
2018-05-12T04:42:56.091Z,14.20
2018-05-12T04:45:24.392Z,15.00
2018-05-12T04:47:52.801Z,15.43
2018-05-12T04:50:21.167Z,16.20
2018-05-12T04:52:49.504Z,16.40
2018-05-12T04:55:17.890Z,17.47
2018-05-12T04:57:46.250Z,18.10
2018-05-12T05:00:15.328Z,18.10
2018-05-12T05:02:43.724Z,16.50
2018-05-12T05:05:12.820Z,18.23
2018-05-12T05:07:41.940Z,19.23
2018-05-12T05:10:10.294Z,19.90
2018-05-12T05:12:39.380Z,19.30
2018-05-12T05:15:08.490Z,20.50
2018-05-12T05:17:36.854Z,20.10
2018-05-12T05:20:05.174Z,22.17
2018-05-12T05:22:33.587Z,23.97
2018-05-12T05:25:02.179Z,27.43
2018-05-12T05:27:30.548Z,26.17
2018-05-12T05:29:58.892Z,24.73
2018-05-12T05:32:27.219Z,25.23
2018-05-12T05:34:55.554Z,24.03
2018-05-12T05:37:23.901Z,22.50
2018-05-12T05:39:52.293Z,21.57
2018-05-12T05:42:20.680Z,22.67
2018-05-12T05:44:49.012Z,26.70
2018-05-12T05:47:17.461Z,29.73
2018-05-12T05:49:45.826Z,28.73
2018-05-12T05:52:14.134Z,31.07
2018-05-12T05:54:42.597Z,30.60
2018-05-12T05:57:10.905Z,31.77
2018-05-12T05:59:39.223Z,27.87
2018-05-12T06:02:07.596Z,27.53
2018-05-12T06:04:36.691Z,25.30
2018-05-12T06:07:05.802Z,23.83
2018-05-12T06:09:34.583Z,20.80
2018-05-12T06:12:02.916Z,19.53
2018-05-12T06:14:31.218Z,20.37
2018-05-12T06:16:59.571Z,19.90
2018-05-12T06:19:27.939Z,18.40
2018-05-12T06:21:56.257Z,18.57
2018-05-12T06:24:24.631Z,18.90
2018-05-12T06:26:52.955Z,18.43
2018-05-12T06:29:21.263Z,17.93
2018-05-12T06:31:49.741Z,20.53
2018-05-12T06:34:18.057Z,18.67
2018-05-12T06:36:47.156Z,18.97
2018-05-12T06:39:16.264Z,19.50
2018-05-12T06:41:45.373Z,19.70
2018-05-12T06:44:13.711Z,18.43
2018-05-12T06:46:42.151Z,18.60
2018-05-12T06:49:10.512Z,16.80
2018-05-12T06:51:38.928Z,18.33
2018-05-12T06:54:07.384Z,18.57
2018-05-12T06:56:35.731Z,17.60
2018-05-12T06:59:04.086Z,18.57
2018-05-12T07:01:32.458Z,18.40
2018-05-12T07:04:00.788Z,18.50
2018-05-12T07:06:29.176Z,16.70
2018-05-12T07:08:57.553Z,18.60
2018-05-12T07:11:25.863Z,17.63
2018-05-12T07:13:54.395Z,18.60
2018-05-12T07:16:23.137Z,17.70
2018-05-12T07:18:51.470Z,18.40
2018-05-12T07:21:19.823Z,18.53
2018-05-12T07:23:48.169Z,20.33
2018-05-12T07:26:16.498Z,19.00
2018-05-12T07:28:44.836Z,19.07
2018-05-12T07:31:13.173Z,19.37
2018-05-12T07:33:41.518Z,18.73
2018-05-12T07:36:09.857Z,18.40
2018-05-12T07:38:38.402Z,18.27
2018-05-12T07:41:07.476Z,18.10
2018-05-12T07:43:35.801Z,17.30
2018-05-12T07:46:04.151Z,18.73
2018-05-12T07:48:33.437Z,16.90
2018-05-12T07:51:01.774Z,16.47
2018-05-12T07:53:30.136Z,17.57
2018-05-12T07:55:58.470Z,17.07
2018-05-12T07:58:27.592Z,16.10
2018-05-12T08:00:56.205Z,16.00
2018-05-12T08:03:24.614Z,15.33
2018-05-12T08:05:52.898Z,16.00
2018-05-12T08:08:21.269Z,12.93
2018-05-12T08:10:49.621Z,12.47
2018-05-12T08:13:17.969Z,12.27
2018-05-12T08:15:46.311Z,11.23
2018-05-12T08:18:14.642Z,11.10
2018-05-12T08:20:42.953Z,8.53
2018-05-12T08:23:11.803Z,8.90
2018-05-12T08:25:40.155Z,8.70
2018-05-12T08:28:09.301Z,9.03
2018-05-12T08:30:37.656Z,8.60
2018-05-12T08:33:06.004Z,7.37
2018-05-12T08:35:34.339Z,8.40
2018-05-12T08:38:02.668Z,7.13
2018-05-12T08:40:31.087Z,8.43
2018-05-12T08:43:00.106Z,7.50
2018-05-12T08:45:28.691Z,8.90
2018-05-12T08:47:57.053Z,5.70
2018-05-12T08:50:25.396Z,6.40
2018-05-12T08:52:54.496Z,6.90
2018-05-12T08:55:23.656Z,7.83
2018-05-12T08:57:51.961Z,7.87
2018-05-12T09:00:20.353Z,7.63
2018-05-12T09:02:49.452Z,7.77
2018-05-12T09:05:18.543Z,7.87
2018-05-12T09:07:47.852Z,7.10
2018-05-12T09:10:16.955Z,7.20
2018-05-12T09:12:45.308Z,8.10
2018-05-12T09:15:13.697Z,8.67
2018-05-12T09:17:42.788Z,8.10
2018-05-12T09:20:11.898Z,8.23
2018-05-12T09:22:41.052Z,8.60
2018-05-12T09:25:09.368Z,9.00
2018-05-12T09:27:37.750Z,9.30
2018-05-12T09:30:07.362Z,8.03
2018-05-12T09:32:35.699Z,9.03
2018-05-12T09:35:04.052Z,8.10
2018-05-12T09:37:32.411Z,8.37
2018-05-12T09:40:00.727Z,7.47
2018-05-12T09:42:29.192Z,11.10
2018-05-12T09:44:57.504Z,9.00
2018-05-12T09:47:25.823Z,9.60
2018-05-12T09:49:54.158Z,9.83
2018-05-12T09:52:23.074Z,9.60
2018-05-12T09:54:51.447Z,7.70
2018-05-12T09:57:20.544Z,8.40
2018-05-12T09:59:49.664Z,8.03
2018-05-12T10:02:18.745Z,7.67
2018-05-12T10:04:47.838Z,7.60
2018-05-12T10:07:16.999Z,7.87
2018-05-12T10:09:45.330Z,9.37
2018-05-12T10:12:14.420Z,8.13
2018-05-12T10:14:43.753Z,7.77
2018-05-12T10:17:12.080Z,7.67
2018-05-12T10:19:40.384Z,7.60
2018-05-12T10:22:08.753Z,8.17
2018-05-12T10:24:37.115Z,8.50
2018-05-12T10:27:05.550Z,6.80
2018-05-12T10:29:33.907Z,6.40
2018-05-12T10:32:02.273Z,6.37
2018-05-12T10:34:31.352Z,6.20
2018-05-12T10:37:00.651Z,7.17
2018-05-12T10:39:28.977Z,6.80
2018-05-12T10:41:57.390Z,5.37
2018-05-12T10:44:25.742Z,5.60
2018-05-12T10:46:54.063Z,4.87
2018-05-12T10:49:22.401Z,6.50
2018-05-12T10:51:50.729Z,5.80
2018-05-12T10:54:19.098Z,6.17
2018-05-12T10:56:47.434Z,6.10
2018-05-12T10:59:16.375Z,5.70
2018-05-12T11:01:44.733Z,4.80
2018-05-12T11:04:13.032Z,5.47
2018-05-12T11:06:41.388Z,4.60
2018-05-12T11:09:09.728Z,5.13
2018-05-12T11:11:38.032Z,4.60
2018-05-12T11:14:06.397Z,4.00
2018-05-12T11:16:34.722Z,4.50
2018-05-12T11:19:03.050Z,3.87
2018-05-12T11:21:31.887Z,4.33
2018-05-12T11:24:00.244Z,4.47
2018-05-12T11:26:28.616Z,3.50
2018-05-12T11:28:56.980Z,3.30
2018-05-12T11:31:25.335Z,3.43
2018-05-12T11:33:54.424Z,3.77
2018-05-12T11:36:23.527Z,3.70
2018-05-12T11:38:52.649Z,3.80
2018-05-12T11:41:21.025Z,3.37
2018-05-12T11:43:49.871Z,3.50
2018-05-12T11:46:18.229Z,2.80
2018-05-12T11:48:46.581Z,3.50
2018-05-12T11:51:14.932Z,3.63
2018-05-12T11:53:43.267Z,3.43
2018-05-12T11:56:11.634Z,3.43
2018-05-12T11:58:40.016Z,3.23
2018-05-12T12:01:08.347Z,3.23
2018-05-12T12:03:37.538Z,2.93
2018-05-12T12:06:06.042Z,3.60
2018-05-12T12:08:34.362Z,3.30
2018-05-12T12:11:02.683Z,2.80
2018-05-12T12:13:31.830Z,2.90
2018-05-12T12:16:00.172Z,2.90
2018-05-12T12:18:28.496Z,4.00
2018-05-12T12:20:56.848Z,2.60
2018-05-12T12:23:25.185Z,3.00
2018-05-12T12:25:53.518Z,2.60
2018-05-12T12:28:22.350Z,3.33
2018-05-12T12:30:50.644Z,2.90
2018-05-12T12:33:19.069Z,2.97
2018-05-12T12:35:47.352Z,3.50
2018-05-12T12:38:15.670Z,3.30
2018-05-12T12:40:43.975Z,3.40
2018-05-12T12:43:12.321Z,3.10
2018-05-12T12:45:40.641Z,3.00
2018-05-12T12:48:08.979Z,3.60
2018-05-12T12:50:38.690Z,3.40
2018-05-12T12:53:07.015Z,3.10
2018-05-12T12:55:35.342Z,3.10
2018-05-12T12:58:03.730Z,3.40
2018-05-12T13:00:32.089Z,4.40
2018-05-12T13:03:00.411Z,4.33
2018-05-12T13:05:28.763Z,3.10
2018-05-12T13:07:57.137Z,3.17
2018-05-12T13:10:25.507Z,3.30
2018-05-12T13:12:54.040Z,4.30
2018-05-12T13:15:22.372Z,3.40
2018-05-12T13:17:50.680Z,3.73
2018-05-12T13:20:19.058Z,3.90
2018-05-12T13:22:47.400Z,3.00
2018-05-12T13:25:15.724Z,3.10
2018-05-12T13:27:44.143Z,3.50
2018-05-12T13:30:12.439Z,3.70
2018-05-12T13:32:40.740Z,3.20
2018-05-12T13:35:09.912Z,3.37
2018-05-12T13:37:38.223Z,3.60
2018-05-12T13:40:06.557Z,3.60
2018-05-12T13:42:34.946Z,3.43
2018-05-12T13:45:03.312Z,3.30
2018-05-12T13:47:31.682Z,3.27
2018-05-12T13:50:00.012Z,3.57
2018-05-12T13:52:28.370Z,3.50
2018-05-12T13:54:56.702Z,3.57
2018-05-12T13:57:25.102Z,3.73
2018-05-12T13:59:53.425Z,3.80
2018-05-12T14:02:22.533Z,4.17
2018-05-12T14:04:51.623Z,3.73
2018-05-12T14:07:20.732Z,3.73
2018-05-12T14:09:49.063Z,3.70
2018-05-12T14:12:17.424Z,3.90
2018-05-12T14:14:45.743Z,4.10
2018-05-12T14:17:14.832Z,4.50
2018-05-12T14:19:44.355Z,4.23
2018-05-12T14:22:13.458Z,3.80
2018-05-12T14:24:42.555Z,3.93
2018-05-12T14:27:10.903Z,3.60
2018-05-12T14:29:39.380Z,3.13
2018-05-12T14:32:07.767Z,3.67
2018-05-12T14:34:36.920Z,3.80
2018-05-12T14:37:05.239Z,3.50
2018-05-12T14:39:33.577Z,3.10
2018-05-12T14:42:02.050Z,3.73
2018-05-12T14:44:30.403Z,4.00
2018-05-12T14:46:59.521Z,3.60
2018-05-12T14:49:27.868Z,4.50
2018-05-12T14:51:56.966Z,3.67
2018-05-12T14:54:25.269Z,4.20
2018-05-12T14:56:53.622Z,4.03
2018-05-12T14:59:22.718Z,3.50
2018-05-12T15:01:51.780Z,4.07
2018-05-12T15:04:20.183Z,3.70
2018-05-12T15:06:48.512Z,3.47
2018-05-12T15:09:16.830Z,3.60
2018-05-12T15:11:45.192Z,3.80
2018-05-12T15:14:13.527Z,4.10
2018-05-12T15:16:42.632Z,3.90
2018-05-12T15:19:10.972Z,3.87
2018-05-12T15:21:39.284Z,4.13
2018-05-12T15:24:07.652Z,5.27
2018-05-12T15:26:36.545Z,3.90
2018-05-12T15:29:05.636Z,4.30
2018-05-12T15:31:34.716Z,3.80
2018-05-12T15:40:57.372Z,4.03
2018-05-12T15:43:25.731Z,3.50
2018-05-12T15:45:54.079Z,4.60
2018-05-12T15:48:23.703Z,4.73
2018-05-12T15:50:52.795Z,3.77
2018-05-12T15:53:21.892Z,4.07
2018-05-12T15:55:51.040Z,4.47
2018-05-12T15:58:19.354Z,3.73
2018-05-12T16:00:47.696Z,3.80
2018-05-12T16:03:16.047Z,4.00
2018-05-12T16:05:44.388Z,3.80
2018-05-12T16:08:12.712Z,4.20
2018-05-12T16:10:41.557Z,4.30
2018-05-12T16:13:09.855Z,4.10
2018-05-12T16:15:38.941Z,3.83
2018-05-12T16:18:08.064Z,3.30
2018-05-12T16:20:36.389Z,4.17
2018-05-12T16:23:04.680Z,3.57
2018-05-12T16:25:34.510Z,3.40
2018-05-12T16:28:02.834Z,3.80
2018-05-12T16:30:32.979Z,3.50
2018-05-12T16:33:01.786Z,3.90
2018-05-12T16:35:30.865Z,4.33
2018-05-12T16:37:59.191Z,3.97
2018-05-12T16:40:27.546Z,4.13
2018-05-12T16:42:56.651Z,4.00
2018-05-12T16:45:27.285Z,3.07
2018-05-12T16:47:56.444Z,3.77
2018-05-12T16:50:24.801Z,3.67
2018-05-12T16:52:53.136Z,3.93
2018-05-12T16:55:22.412Z,4.10
2018-05-12T16:57:50.763Z,4.00
2018-05-12T17:00:19.106Z,3.73
2018-05-12T17:02:47.503Z,4.80
2018-05-12T17:05:15.827Z,4.03
2018-05-12T17:07:44.180Z,4.00
2018-05-12T17:10:12.558Z,3.80
2018-05-12T17:12:40.883Z,4.10
2018-05-12T17:15:09.233Z,4.67
2018-05-12T17:17:37.943Z,4.27
2018-05-12T17:20:06.268Z,4.00
2018-05-12T17:22:34.632Z,3.70
2018-05-12T17:25:02.990Z,4.83
2018-05-12T17:27:31.323Z,5.33
2018-05-12T17:29:59.659Z,4.60
2018-05-12T17:32:29.263Z,4.60
2018-05-12T17:34:57.575Z,4.77
2018-05-12T17:37:25.893Z,4.70
2018-05-12T17:39:54.692Z,5.50
2018-05-12T17:42:23.017Z,4.53
2018-05-12T17:44:51.323Z,5.80
2018-05-12T17:47:19.686Z,4.47
2018-05-12T17:49:48.021Z,6.00
2018-05-12T17:52:17.131Z,5.50
2018-05-12T17:54:45.506Z,5.77
2018-05-12T17:57:14.654Z,5.20
2018-05-12T17:59:43.556Z,4.73
2018-05-12T18:02:12.372Z,4.60
2018-05-12T18:04:41.462Z,5.20
2018-05-12T18:07:09.787Z,6.20
2018-05-12T18:09:38.146Z,6.63
2018-05-12T18:12:06.470Z,5.60
2018-05-12T18:14:34.803Z,4.40
2018-05-12T18:17:03.193Z,5.20
2018-05-12T18:19:31.500Z,4.77
2018-05-12T18:21:59.825Z,5.07
2018-05-12T18:24:29.139Z,5.37
2018-05-12T18:26:57.558Z,4.97
2018-05-12T18:29:25.907Z,4.60
2018-05-12T18:31:54.351Z,4.47
2018-05-12T18:34:23.375Z,5.60
2018-05-12T18:36:52.487Z,4.67
2018-05-12T18:39:20.823Z,5.30
2018-05-12T18:41:49.175Z,4.90
2018-05-12T18:44:17.590Z,4.60
2018-05-12T18:46:46.412Z,4.67
2018-05-12T18:49:14.768Z,4.30
2018-05-12T18:51:43.873Z,4.93
2018-05-12T18:54:12.205Z,4.60
2018-05-12T18:56:40.621Z,4.80
2018-05-12T18:59:08.884Z,4.70
2018-05-12T19:01:37.278Z,5.17
2018-05-12T19:04:05.602Z,5.67
2018-05-12T19:06:33.945Z,4.80
2018-05-12T19:09:02.380Z,5.53
2018-05-12T19:11:30.688Z,5.77
2018-05-12T19:13:59.004Z,5.57
2018-05-12T19:16:27.396Z,5.13
2018-05-12T19:18:55.742Z,5.30
2018-05-12T19:21:24.084Z,6.30
2018-05-12T19:23:52.441Z,5.90
2018-05-12T19:26:20.778Z,6.13
2018-05-12T19:28:49.129Z,6.27
2018-05-12T19:31:17.815Z,6.80
2018-05-12T19:33:46.124Z,7.17
2018-05-12T19:36:14.468Z,6.57
2018-05-12T19:38:42.843Z,6.20
2018-05-12T19:41:11.211Z,7.63
2018-05-12T19:43:39.571Z,6.57
2018-05-12T19:46:07.915Z,7.33
2018-05-12T19:48:36.257Z,6.90
2018-05-12T19:51:04.623Z,7.40
2018-05-12T19:53:33.088Z,7.97
2018-05-12T19:56:01.424Z,6.67
2018-05-12T19:58:29.744Z,7.03
2018-05-12T20:00:58.148Z,6.70
2018-05-12T20:03:26.507Z,7.40
2018-05-12T20:05:54.832Z,7.43
2018-05-12T20:08:23.183Z,7.40
2018-05-12T20:10:51.538Z,8.03
2018-05-12T20:13:21.701Z,7.27
2018-05-12T20:15:50.354Z,7.40
2018-05-12T20:18:18.681Z,8.30
2018-05-12T20:20:47.812Z,8.30
2018-05-12T20:23:16.185Z,9.13
2018-05-12T20:25:44.597Z,8.77
2018-05-12T20:28:12.895Z,8.20
2018-05-12T20:34:00.852Z,8.20
2018-05-12T20:39:12.441Z,9.00
2018-05-12T20:41:40.777Z,9.60
2018-05-12T20:44:09.159Z,9.23
2018-05-12T20:46:37.517Z,10.03
2018-05-12T20:49:06.650Z,10.10
2018-05-12T20:51:35.518Z,10.77
2018-05-12T20:54:04.631Z,10.80
2018-05-12T20:56:32.978Z,12.20
2018-05-12T20:59:01.422Z,10.17
2018-05-12T21:01:29.762Z,11.33
2018-05-12T21:03:58.085Z,10.80
2018-05-12T21:06:26.443Z,12.03
2018-05-12T21:08:54.868Z,11.20
2018-05-12T21:11:23.178Z,12.50
2018-05-12T21:13:51.556Z,12.07
2018-05-12T21:16:19.938Z,13.10
2018-05-12T21:18:48.252Z,11.93
2018-05-12T21:21:17.002Z,13.00
2018-05-12T21:23:45.369Z,13.63
2018-05-12T21:26:13.684Z,12.50
2018-05-12T21:28:42.042Z,14.87
2018-05-12T21:31:10.402Z,14.43
2018-05-12T21:33:39.575Z,14.07
2018-05-12T21:36:07.943Z,13.87
2018-05-12T21:38:36.291Z,14.27
2018-05-12T21:41:04.618Z,13.33
2018-05-12T21:43:33.368Z,14.30
2018-05-12T21:46:01.774Z,14.50
2018-05-12T21:48:30.096Z,13.90
2018-05-12T21:50:58.473Z,14.60
2018-05-12T21:53:27.126Z,14.97
2018-05-12T21:55:55.495Z,14.90
2018-05-12T21:58:23.852Z,14.43
2018-05-12T22:00:52.204Z,16.53
2018-05-12T22:03:20.527Z,17.80
2018-05-12T22:05:49.373Z,16.67
2018-05-12T22:08:18.042Z,17.70
2018-05-12T22:10:46.456Z,18.37
2018-05-12T22:13:14.900Z,17.70
2018-05-12T22:15:43.277Z,19.90
2018-05-12T22:18:12.389Z,17.60
2018-05-12T22:20:40.749Z,19.40
2018-05-12T22:23:09.095Z,19.67
2018-05-12T22:25:38.171Z,19.10
2018-05-12T22:28:06.666Z,19.53
2018-05-12T22:30:35.007Z,19.97
2018-05-12T22:33:03.346Z,20.80
2018-05-12T22:35:31.726Z,21.60
2018-05-12T22:38:00.048Z,22.60
2018-05-12T22:40:35.284Z,20.70
2018-05-12T22:43:03.647Z,21.17
2018-05-12T22:45:32.000Z,20.80
2018-05-12T22:48:00.836Z,22.97
2018-05-12T22:50:29.200Z,22.83
2018-05-12T22:52:58.287Z,23.70
2018-05-12T22:55:27.425Z,23.27
2018-05-12T22:57:55.760Z,23.67
2018-05-12T23:00:33.467Z,24.63
2018-05-12T23:03:02.547Z,24.17
2018-05-12T23:05:30.848Z,26.17
2018-05-12T23:07:59.283Z,24.20
2018-05-12T23:10:27.588Z,23.90
2018-05-12T23:12:55.894Z,23.30
2018-05-12T23:15:24.244Z,24.87
2018-05-12T23:17:52.605Z,24.07
2018-05-12T23:20:20.939Z,25.10
2018-05-12T23:22:49.286Z,26.20
2018-05-12T23:25:18.377Z,25.77
2018-05-12T23:27:47.473Z,26.03
2018-05-12T23:30:16.060Z,25.00
2018-05-12T23:32:44.407Z,27.27
2018-05-12T23:35:12.735Z,27.50
2018-05-12T23:37:41.845Z,26.90
2018-05-12T23:40:10.224Z,27.00
2018-05-12T23:42:38.568Z,25.93
2018-05-12T23:45:06.921Z,24.43
2018-05-12T23:47:35.262Z,26.53
2018-05-12T23:50:03.592Z,25.80
2018-05-12T23:52:32.088Z,28.70
2018-05-12T23:55:00.467Z,25.77
2018-05-12T23:57:28.795Z,24.03
2018-05-12T23:59:57.170Z,25.90
